createdAt,value
2019-04-25T00:00:15.020Z,12.20
2019-04-25T00:02:44.797Z,12.10
2019-04-25T00:05:14.697Z,12.20
2019-04-25T00:07:43.914Z,12.20
2019-04-25T00:10:14.324Z,12.20
2019-04-25T00:12:45.695Z,12.20
2019-04-25T00:15:14.960Z,12.10
2019-04-25T00:17:44.693Z,12.00
2019-04-25T00:20:14.057Z,12.00
2019-04-25T00:22:54.691Z,12.10
2019-04-25T00:25:45.407Z,12.10
2019-04-25T00:28:12.380Z,12.10
2019-04-25T00:30:43.428Z,12.20
2019-04-25T00:33:12.772Z,12.30
2019-04-25T00:35:43.467Z,12.30
2019-04-25T00:38:12.637Z,12.40
2019-04-25T00:40:42.763Z,12.50
2019-04-25T00:43:12.534Z,12.50
2019-04-25T00:45:42.584Z,12.60
2019-04-25T00:48:12.730Z,12.60
2019-04-25T00:50:43.239Z,12.50
2019-04-25T00:53:12.365Z,12.50
2019-04-25T00:55:42.420Z,12.30
2019-04-25T00:58:18.755Z,12.20
2019-04-25T01:01:05.334Z,12.10
2019-04-25T01:03:34.908Z,12.10
2019-04-25T01:06:03.972Z,12.00
2019-04-25T01:08:33.042Z,12.00
2019-04-25T01:11:02.076Z,11.90
2019-04-25T01:13:32.184Z,11.80
2019-04-25T01:16:03.836Z,11.80
2019-04-25T01:18:33.689Z,11.80
2019-04-25T01:21:04.332Z,11.70
2019-04-25T01:23:33.732Z,11.70
2019-04-25T01:26:03.352Z,11.70
2019-04-25T01:28:33.876Z,11.70
2019-04-25T01:31:03.869Z,11.60
2019-04-25T01:33:33.405Z,11.50
2019-04-25T01:36:20.464Z,11.50
2019-04-25T01:39:14.806Z,11.50
2019-04-25T01:41:56.166Z,11.70
2019-04-25T01:44:28.810Z,11.60
2019-04-25T01:46:58.217Z,11.60
2019-04-25T01:49:27.766Z,11.60
2019-04-25T01:51:57.411Z,11.60
2019-04-25T01:54:27.699Z,11.60
2019-04-25T01:56:57.358Z,11.50
2019-04-25T01:59:26.414Z,11.50
2019-04-25T02:01:56.719Z,11.50
2019-04-25T02:04:25.908Z,11.40
2019-04-25T02:06:55.686Z,11.40
2019-04-25T02:09:25.599Z,11.50
2019-04-25T02:12:20.321Z,11.50
2019-04-25T02:14:49.363Z,11.50
2019-04-25T02:17:18.546Z,11.50
2019-04-25T02:19:47.619Z,11.30
2019-04-25T02:22:16.663Z,11.30
2019-04-25T02:24:46.009Z,11.10
2019-04-25T02:27:15.211Z,11.00
2019-04-25T02:29:44.789Z,10.90
2019-04-25T02:32:14.740Z,10.90
2019-04-25T02:34:45.547Z,10.90
2019-04-25T02:37:14.882Z,10.80
2019-04-25T02:39:44.737Z,10.60
2019-04-25T02:42:16.526Z,10.60
2019-04-25T02:44:49.587Z,10.60
2019-04-25T02:47:25.735Z,10.70
2019-04-25T02:50:17.748Z,10.70
2019-04-25T02:53:01.365Z,10.70
2019-04-25T02:55:34.137Z,10.60
2019-04-25T02:58:02.473Z,10.50
2019-04-25T03:00:47.668Z,10.30
2019-04-25T03:03:05.617Z,10.30
2019-04-25T03:05:35.438Z,10.30
2019-04-25T03:08:07.956Z,10.40
2019-04-25T03:10:35.053Z,10.40
2019-04-25T03:13:07.977Z,10.20
2019-04-25T03:15:36.551Z,10.30
2019-04-25T03:18:10.829Z,10.30
2019-04-25T03:20:54.996Z,10.20
2019-04-25T03:23:37.407Z,10.30
2019-04-25T03:26:07.502Z,10.20
2019-04-25T03:28:36.912Z,10.30
2019-04-25T03:31:12.455Z,10.30
2019-04-25T03:33:38.469Z,10.30
2019-04-25T03:36:07.822Z,10.30
2019-04-25T03:38:37.390Z,10.30
2019-04-25T03:41:07.039Z,10.30
2019-04-25T03:43:36.100Z,10.40
2019-04-25T03:46:06.190Z,10.30
2019-04-25T03:48:37.085Z,10.30
2019-04-25T03:51:06.759Z,10.40
2019-04-25T03:53:36.247Z,10.40
2019-04-25T03:56:06.401Z,10.40
2019-04-25T03:58:35.970Z,10.30
2019-04-25T04:01:07.960Z,10.30
2019-04-25T04:03:36.665Z,10.10
2019-04-25T04:06:07.273Z,10.10
2019-04-25T04:08:36.597Z,10.10
2019-04-25T04:11:07.444Z,10.20
2019-04-25T04:13:36.373Z,10.20
2019-04-25T04:16:06.429Z,10.00
2019-04-25T04:18:41.205Z,10.10
2019-04-25T04:21:26.226Z,10.00
2019-04-25T04:24:11.722Z,10.10
2019-04-25T04:26:40.937Z,10.20
2019-04-25T04:29:10.095Z,10.10
2019-04-25T04:31:39.086Z,10.10
2019-04-25T04:34:08.684Z,10.10
2019-04-25T04:36:37.742Z,10.10
2019-04-25T04:39:08.738Z,10.10
2019-04-25T04:41:37.778Z,10.00
2019-04-25T04:44:08.227Z,10.10
2019-04-25T04:46:52.021Z,10.10
2019-04-25T04:49:21.370Z,10.00
2019-04-25T04:51:50.286Z,10.00
2019-04-25T04:54:19.283Z,10.00
2019-04-25T04:56:48.382Z,10.10
2019-04-25T04:59:17.351Z,10.10
2019-04-25T05:02:18.757Z,10.10
2019-04-25T05:05:00.470Z,10.00
2019-04-25T05:07:50.578Z,10.10
2019-04-25T05:10:20.054Z,10.30
2019-04-25T05:12:49.546Z,10.90
2019-04-25T05:15:19.190Z,11.30
2019-04-25T05:17:48.762Z,11.60
2019-04-25T05:20:18.836Z,11.80
2019-04-25T05:22:47.990Z,12.10
2019-04-25T05:25:17.827Z,12.30
2019-04-25T05:28:00.168Z,12.20
2019-04-25T05:30:26.562Z,12.10
2019-04-25T05:32:55.864Z,11.80
2019-04-25T05:35:25.403Z,11.60
2019-04-25T05:37:54.711Z,11.50
2019-04-25T05:40:24.505Z,11.30
2019-04-25T05:43:13.427Z,11.30
2019-04-25T05:45:43.972Z,11.40
2019-04-25T05:48:15.188Z,11.50
2019-04-25T05:50:43.831Z,11.50
2019-04-25T05:53:14.172Z,11.70
2019-04-25T05:55:44.150Z,11.70
2019-04-25T05:58:13.857Z,11.80
2019-04-25T06:00:44.043Z,11.90
2019-04-25T06:03:13.712Z,12.00
2019-04-25T06:05:43.439Z,12.10
2019-04-25T06:08:14.116Z,12.20
2019-04-25T06:11:05.433Z,12.20
2019-04-25T06:13:45.200Z,12.40
2019-04-25T06:16:34.178Z,12.50
2019-04-25T06:19:25.658Z,12.60
2019-04-25T06:21:55.902Z,12.80
2019-04-25T06:24:49.908Z,13.00
2019-04-25T06:27:27.099Z,13.20
2019-04-25T06:30:15.886Z,13.60
2019-04-25T06:32:45.188Z,13.70
2019-04-25T06:35:14.568Z,13.70
2019-04-25T06:37:44.169Z,14.00
2019-04-25T06:40:14.433Z,14.20
2019-04-25T06:42:43.576Z,14.30
2019-04-25T06:45:34.432Z,14.50
2019-04-25T06:48:26.052Z,14.70
2019-04-25T06:50:56.035Z,14.80
2019-04-25T06:53:26.072Z,14.70
2019-04-25T06:55:56.001Z,14.70
2019-04-25T06:58:26.928Z,14.90
2019-04-25T07:01:00.655Z,15.00
2019-04-25T07:03:27.105Z,15.10
2019-04-25T07:05:56.164Z,15.10
2019-04-25T07:08:25.841Z,15.40
2019-04-25T07:10:55.725Z,15.70
2019-04-25T07:13:25.581Z,15.60
2019-04-25T07:15:55.117Z,15.60
2019-04-25T07:18:29.220Z,15.90
2019-04-25T07:20:55.017Z,16.00
2019-04-25T07:23:25.355Z,16.10
2019-04-25T07:26:01.305Z,16.30
2019-04-25T07:28:49.021Z,16.50
2019-04-25T07:31:36.970Z,16.20
2019-04-25T07:34:15.745Z,15.70
2019-04-25T07:36:45.637Z,15.50
2019-04-25T07:39:14.837Z,15.50
2019-04-25T07:41:44.208Z,15.50
2019-04-25T07:44:14.705Z,15.60
2019-04-25T07:46:43.910Z,15.70
2019-04-25T07:49:13.463Z,15.70
2019-04-25T07:51:43.482Z,15.60
2019-04-25T07:54:14.288Z,15.70
2019-04-25T07:56:43.741Z,15.90
2019-04-25T07:59:13.888Z,16.00
2019-04-25T08:01:43.690Z,16.00
2019-04-25T08:04:13.701Z,16.10
2019-04-25T08:06:44.525Z,16.20
2019-04-25T08:09:15.677Z,16.20
2019-04-25T08:11:44.825Z,16.20
2019-04-25T08:14:18.877Z,16.40
2019-04-25T08:16:50.563Z,16.70
2019-04-25T08:19:19.846Z,16.70
2019-04-25T08:21:49.810Z,16.60
2019-04-25T08:24:18.854Z,16.70
2019-04-25T08:26:47.906Z,17.10
2019-04-25T08:29:17.042Z,17.10
2019-04-25T08:31:46.011Z,17.00
2019-04-25T08:34:15.035Z,17.00
2019-04-25T08:36:45.350Z,16.70
2019-04-25T08:39:15.491Z,16.70
2019-04-25T08:41:45.741Z,16.80
2019-04-25T08:44:15.065Z,16.90
2019-04-25T08:46:48.268Z,16.70
2019-04-25T08:49:26.595Z,16.80
2019-04-25T08:51:56.155Z,16.70
2019-04-25T08:54:47.356Z,16.90
2019-04-25T08:57:40.439Z,17.10
2019-04-25T09:00:24.503Z,17.20
2019-04-25T09:02:58.221Z,17.60
2019-04-25T09:05:38.813Z,17.60
2019-04-25T09:08:08.113Z,17.70
2019-04-25T09:10:39.730Z,17.70
2019-04-25T09:13:08.234Z,17.70
2019-04-25T09:15:38.075Z,17.70
2019-04-25T09:18:07.210Z,17.70
2019-04-25T09:20:40.291Z,18.00
2019-04-25T09:23:06.980Z,18.40
2019-04-25T09:25:36.818Z,18.80
2019-04-25T09:28:06.162Z,19.20
2019-04-25T09:30:36.820Z,19.10
2019-04-25T09:33:05.918Z,19.00
2019-04-25T09:35:36.274Z,18.80
2019-04-25T09:38:05.758Z,18.90
2019-04-25T09:40:35.965Z,19.20
2019-04-25T09:43:05.142Z,19.20
2019-04-25T09:45:43.885Z,19.20
2019-04-25T09:48:19.158Z,19.00
2019-04-25T09:50:51.574Z,18.90
2019-04-25T09:53:23.335Z,18.70
2019-04-25T09:56:08.735Z,18.70
2019-04-25T09:58:56.832Z,18.80
2019-04-25T10:01:27.094Z,18.50
2019-04-25T10:03:56.235Z,18.30
2019-04-25T10:06:25.385Z,18.70
2019-04-25T10:08:54.519Z,19.30
2019-04-25T10:11:23.854Z,19.30
2019-04-25T10:14:32.939Z,19.20
2019-04-25T10:17:03.697Z,18.80
2019-04-25T10:19:34.354Z,18.60
2019-04-25T10:22:04.008Z,18.60
2019-04-25T10:24:33.038Z,18.60
2019-04-25T10:27:03.641Z,18.70
2019-04-25T10:29:41.633Z,18.80
2019-04-25T10:32:04.417Z,18.80
2019-04-25T10:34:33.468Z,18.90
2019-04-25T10:37:03.273Z,18.80
2019-04-25T10:39:33.943Z,18.60
2019-04-25T10:42:03.645Z,18.70
2019-04-25T10:44:33.896Z,18.90
2019-04-25T10:47:03.101Z,19.10
2019-04-25T10:49:34.350Z,19.30
2019-04-25T10:52:03.176Z,19.40
2019-04-25T10:54:33.659Z,19.20
2019-04-25T10:57:03.172Z,19.10
2019-04-25T10:59:32.185Z,19.00
2019-04-25T11:02:01.223Z,19.20
2019-04-25T11:04:41.924Z,19.30
2019-04-25T11:07:11.080Z,19.30
2019-04-25T11:09:40.621Z,19.90
2019-04-25T11:12:12.886Z,20.20
2019-04-25T11:14:42.236Z,20.40
2019-04-25T11:17:13.213Z,20.60
2019-04-25T11:19:44.337Z,20.70
2019-04-25T11:22:13.452Z,20.40
2019-04-25T11:24:44.001Z,20.40
2019-04-25T11:27:13.526Z,20.50
2019-04-25T11:29:44.720Z,21.00
2019-04-25T11:32:14.943Z,21.00
2019-04-25T11:34:46.127Z,20.90
2019-04-25T11:37:15.125Z,20.70
2019-04-25T11:40:00.153Z,20.40
2019-04-25T11:42:29.201Z,20.50
2019-04-25T11:44:58.356Z,20.50
2019-04-25T11:47:27.573Z,20.80
2019-04-25T11:49:56.546Z,21.20
2019-04-25T11:52:29.542Z,21.40
2019-04-25T11:54:56.394Z,21.70
2019-04-25T11:57:25.714Z,21.70
2019-04-25T11:59:55.790Z,22.00
2019-04-25T12:02:26.311Z,22.40
2019-04-25T12:04:55.363Z,22.90
2019-04-25T12:07:24.474Z,22.90
2019-04-25T12:09:54.515Z,22.50
2019-04-25T12:12:24.334Z,22.40
2019-04-25T12:14:54.367Z,22.40
2019-04-25T12:17:24.330Z,22.00
2019-04-25T12:19:54.580Z,21.90
2019-04-25T12:22:24.038Z,22.20
2019-04-25T12:24:54.693Z,22.00
2019-04-25T12:27:23.881Z,21.50
2019-04-25T12:29:52.910Z,21.30
2019-04-25T12:32:21.951Z,21.20
2019-04-25T12:34:51.632Z,21.10
2019-04-25T12:37:20.726Z,20.80
2019-04-25T12:39:50.894Z,20.80
2019-04-25T12:42:19.923Z,20.70
2019-04-25T12:45:14.132Z,20.70
2019-04-25T12:47:45.358Z,20.70
2019-04-25T12:50:18.576Z,20.80
2019-04-25T12:52:46.612Z,21.00
2019-04-25T12:55:15.827Z,21.10
2019-04-25T12:57:44.899Z,21.30
2019-04-25T13:00:16.651Z,21.40
2019-04-25T13:02:45.555Z,21.80
2019-04-25T13:05:14.604Z,22.10
2019-04-25T13:07:43.719Z,22.40
2019-04-25T13:10:13.192Z,22.70
2019-04-25T13:12:44.399Z,22.70
2019-04-25T13:15:14.565Z,22.90
2019-04-25T13:17:43.971Z,22.80
2019-04-25T13:20:13.567Z,22.80
2019-04-25T13:22:43.231Z,22.90
2019-04-25T13:25:14.429Z,23.10
2019-04-25T13:28:00.532Z,23.10
2019-04-25T13:31:04.068Z,23.20
2019-04-25T13:33:33.555Z,23.20
2019-04-25T13:36:06.283Z,23.10
2019-04-25T13:38:35.264Z,23.30
2019-04-25T13:41:04.324Z,23.30
2019-04-25T13:43:33.448Z,23.40
2019-04-25T13:46:02.840Z,23.50
2019-04-25T13:48:32.404Z,23.60
2019-04-25T13:51:01.530Z,23.50
2019-04-25T13:53:31.498Z,23.40
2019-04-25T13:56:01.006Z,23.10
2019-04-25T13:58:31.253Z,23.30
2019-04-25T14:01:12.384Z,23.30
2019-04-25T14:03:34.019Z,23.40
2019-04-25T14:06:03.793Z,23.80
2019-04-25T14:08:33.523Z,23.80
2019-04-25T14:11:04.948Z,24.00
2019-04-25T14:13:33.797Z,23.90
2019-04-25T14:16:21.185Z,23.40
2019-04-25T14:19:01.741Z,23.00
2019-04-25T14:21:31.573Z,22.70
2019-04-25T14:24:01.001Z,22.60
2019-04-25T14:26:31.227Z,22.70
2019-04-25T14:29:00.370Z,23.00
2019-04-25T14:31:39.355Z,23.10
2019-04-25T14:34:00.665Z,23.30
2019-04-25T14:36:30.237Z,23.60
2019-04-25T14:38:59.366Z,23.80
2019-04-25T14:41:28.426Z,23.70
2019-04-25T14:43:57.793Z,23.50
2019-04-25T14:46:27.757Z,23.40
2019-04-25T14:48:57.328Z,23.30
2019-04-25T14:51:26.287Z,23.40
2019-04-25T14:53:55.916Z,23.50
2019-04-25T14:56:53.622Z,23.60
2019-04-25T14:59:23.638Z,23.60
2019-04-25T15:01:53.567Z,23.30
2019-04-25T15:04:22.926Z,23.50
2019-04-25T15:06:53.230Z,23.50
2019-04-25T15:09:23.465Z,23.50
2019-04-25T15:11:52.614Z,23.60
2019-04-25T15:14:22.556Z,23.60
2019-04-25T15:16:52.599Z,23.60
2019-04-25T15:19:21.667Z,23.80
2019-04-25T15:21:50.834Z,23.90
2019-04-25T15:24:20.092Z,24.10
2019-04-25T15:26:49.366Z,24.40
2019-04-25T15:29:18.359Z,24.40
2019-04-25T15:31:55.850Z,24.10
2019-04-25T15:34:18.203Z,23.60
2019-04-25T15:37:02.007Z,23.30
2019-04-25T15:39:47.659Z,23.20
2019-04-25T15:42:32.147Z,23.10
2019-04-25T15:45:09.986Z,23.00
2019-04-25T15:47:39.231Z,22.90
2019-04-25T15:50:08.775Z,23.00
2019-04-25T15:52:37.907Z,22.90
2019-04-25T15:55:07.987Z,22.80
2019-04-25T15:57:37.181Z,22.90
2019-04-25T16:00:08.348Z,22.90
2019-04-25T16:02:37.307Z,22.80
2019-04-25T16:05:08.125Z,22.90
2019-04-25T16:07:37.724Z,22.90
2019-04-25T16:10:08.121Z,23.00
2019-04-25T16:12:37.395Z,23.00
2019-04-25T16:15:07.524Z,23.10
2019-04-25T16:17:37.175Z,23.10
2019-04-25T16:20:06.453Z,23.00
2019-04-25T16:22:36.560Z,23.00
2019-04-25T16:25:06.391Z,23.20
2019-04-25T16:27:36.529Z,23.20
2019-04-25T16:30:06.493Z,23.10
2019-04-25T16:32:35.497Z,23.10
2019-04-25T16:35:04.976Z,23.10
2019-04-25T16:37:34.555Z,23.20
2019-04-25T16:40:03.828Z,23.30
2019-04-25T16:42:33.767Z,23.40
2019-04-25T16:45:03.104Z,23.40
2019-04-25T16:47:33.065Z,23.40
2019-04-25T16:50:02.446Z,23.30
2019-04-25T16:52:31.784Z,23.30
2019-04-25T16:55:00.857Z,23.30
2019-04-25T16:57:30.495Z,23.30
2019-04-25T17:00:00.678Z,23.30
2019-04-25T17:02:37.598Z,23.30
2019-04-25T17:05:04.695Z,23.40
2019-04-25T17:07:36.003Z,23.40
2019-04-25T17:10:05.702Z,23.20
2019-04-25T17:12:34.657Z,23.10
2019-04-25T17:15:28.185Z,23.10
2019-04-25T17:18:06.085Z,23.00
2019-04-25T17:20:39.703Z,22.90
2019-04-25T17:23:09.454Z,22.80
2019-04-25T17:25:39.701Z,22.90
2019-04-25T17:28:08.946Z,22.80
2019-04-25T17:30:39.575Z,22.70
2019-04-25T17:33:27.819Z,22.70
2019-04-25T17:36:04.875Z,22.70
2019-04-25T17:38:39.826Z,22.70
2019-04-25T17:41:09.239Z,22.60
2019-04-25T17:43:38.544Z,22.50
2019-04-25T17:46:10.972Z,22.40
2019-04-25T17:48:40.487Z,21.40
2019-04-25T17:51:09.675Z,20.60
2019-04-25T17:53:39.099Z,20.30
2019-04-25T17:56:08.318Z,19.80
2019-04-25T17:58:37.688Z,19.70
2019-04-25T18:01:08.324Z,19.60
2019-04-25T18:03:37.549Z,19.50
2019-04-25T18:06:06.603Z,19.50
2019-04-25T18:08:36.086Z,19.40
2019-04-25T18:11:05.432Z,19.40
2019-04-25T18:13:37.583Z,19.30
2019-04-25T18:16:17.567Z,19.20
2019-04-25T18:19:09.175Z,19.20
2019-04-25T18:21:38.532Z,19.10
2019-04-25T18:26:58.799Z,19.00
2019-04-25T18:29:27.951Z,18.90
2019-04-25T18:31:57.063Z,18.70
2019-04-25T18:34:51.467Z,18.50
2019-04-25T18:37:38.600Z,18.50
2019-04-25T18:40:39.824Z,18.50
2019-04-25T18:43:17.779Z,18.50
2019-04-25T18:45:50.424Z,18.50
2019-04-25T18:48:19.631Z,18.40
2019-04-25T18:50:48.668Z,18.30
2019-04-25T18:53:37.931Z,18.20
2019-04-25T18:56:20.729Z,18.20
2019-04-25T18:59:04.224Z,18.10
2019-04-25T19:02:04.536Z,18.10
2019-04-25T19:04:45.035Z,18.10
2019-04-25T19:07:22.517Z,18.10
2019-04-25T19:09:44.980Z,18.10
2019-04-25T19:12:14.072Z,18.10
2019-04-25T19:14:43.301Z,18.10
2019-04-25T19:17:12.452Z,18.00
2019-04-25T19:19:41.669Z,18.10
2019-04-25T19:22:10.706Z,18.10
2019-04-25T19:24:43.571Z,18.00
2019-04-25T19:27:22.985Z,18.00
2019-04-25T19:29:41.749Z,18.00
2019-04-25T19:32:10.881Z,18.00
2019-04-25T19:34:40.161Z,18.00
2019-04-25T19:37:10.275Z,18.10
2019-04-25T19:39:41.626Z,17.90
2019-04-25T19:42:30.149Z,17.80
2019-04-25T19:44:59.222Z,17.70
2019-04-25T19:47:28.386Z,17.70
2019-04-25T19:49:57.445Z,17.70
2019-04-25T19:52:26.529Z,17.70
2019-04-25T19:54:55.577Z,17.50
2019-04-25T19:57:24.586Z,17.50
2019-04-25T19:59:54.046Z,17.50
2019-04-25T20:02:33.634Z,17.50
2019-04-25T20:05:15.542Z,17.40
2019-04-25T20:07:52.042Z,17.40
2019-04-25T20:10:40.170Z,17.40
2019-04-25T20:13:09.214Z,17.40
2019-04-25T20:15:38.607Z,17.20
2019-04-25T20:18:07.750Z,17.10
2019-04-25T20:20:36.879Z,17.00
2019-04-25T20:23:05.918Z,17.00
2019-04-25T20:25:35.046Z,17.00
2019-04-25T20:28:04.202Z,16.90
2019-04-25T20:30:33.243Z,16.80
2019-04-25T20:33:02.223Z,16.70
2019-04-25T20:35:31.659Z,16.50
2019-04-25T20:38:00.699Z,16.50
2019-04-25T20:40:29.667Z,16.50
2019-04-25T20:42:58.722Z,16.50
2019-04-25T20:45:27.875Z,16.50
2019-04-25T20:47:57.207Z,16.50
2019-04-25T20:50:26.385Z,16.50
2019-04-25T20:52:55.419Z,16.40
2019-04-25T20:55:24.476Z,16.30
2019-04-25T20:57:53.527Z,16.20
2019-04-25T21:00:40.074Z,16.30
2019-04-25T21:03:09.364Z,16.10
2019-04-25T21:05:38.612Z,16.20
2019-04-25T21:08:07.687Z,16.00
2019-04-25T21:10:36.691Z,16.10
2019-04-25T21:13:07.652Z,16.10
2019-04-25T21:15:47.848Z,16.10
2019-04-25T21:18:21.604Z,16.10
2019-04-25T21:20:50.671Z,16.10
2019-04-25T21:23:20.760Z,16.20
2019-04-25T21:25:51.420Z,16.20
2019-04-25T21:28:21.051Z,16.00
2019-04-25T21:30:51.252Z,15.80
2019-04-25T21:33:20.391Z,15.70
2019-04-25T21:35:49.758Z,15.70
2019-04-25T21:38:20.078Z,15.70
2019-04-25T21:41:00.162Z,15.60
2019-04-25T21:43:31.936Z,15.50
2019-04-25T21:46:01.587Z,15.50
2019-04-25T21:48:31.748Z,15.60
2019-04-25T21:51:20.238Z,15.60
2019-04-25T21:53:49.201Z,15.40
2019-04-25T21:56:18.585Z,15.40
2019-04-25T21:58:47.540Z,15.40
2019-04-25T22:01:18.501Z,15.30
2019-04-25T22:03:47.569Z,15.30
2019-04-25T22:06:17.866Z,15.20
2019-04-25T22:08:46.980Z,15.20
2019-04-25T22:11:16.011Z,15.10
2019-04-25T22:13:45.629Z,15.00
2019-04-25T22:16:14.933Z,15.00
2019-04-25T22:18:44.409Z,15.00
2019-04-25T22:21:13.978Z,14.90
2019-04-25T22:23:43.463Z,15.00
2019-04-25T22:26:12.576Z,15.00
2019-04-25T22:28:42.018Z,15.20
2019-04-25T22:31:16.073Z,15.10
2019-04-25T22:33:55.620Z,15.20
2019-04-25T22:36:25.097Z,15.20
2019-04-25T22:39:11.114Z,15.00
2019-04-25T22:41:42.492Z,14.90
2019-04-25T22:44:12.841Z,14.90
2019-04-25T22:46:42.385Z,14.80
2019-04-25T22:49:11.832Z,14.90
2019-04-25T22:51:40.971Z,15.00
2019-04-25T22:54:10.225Z,15.10
2019-04-25T22:56:39.305Z,15.10
2019-04-25T22:59:09.030Z,15.20
2019-04-25T23:02:09.606Z,15.10
2019-04-25T23:05:05.380Z,15.10
2019-04-25T23:07:27.015Z,15.10
2019-04-25T23:09:56.366Z,15.10
2019-04-25T23:12:25.782Z,15.10
2019-04-25T23:14:55.266Z,15.00
2019-04-25T23:17:25.054Z,15.10
2019-04-25T23:19:54.334Z,15.00
2019-04-25T23:22:23.545Z,15.00
2019-04-25T23:24:57.958Z,15.00
2019-04-25T23:27:46.010Z,14.90
2019-04-25T23:30:17.790Z,14.80
2019-04-25T23:32:46.907Z,14.80
2019-04-25T23:35:28.058Z,14.80
2019-04-25T23:37:46.602Z,14.70
2019-04-25T23:40:15.815Z,14.70
2019-04-25T23:42:44.915Z,14.70
2019-04-25T23:45:15.253Z,14.60
2019-04-25T23:47:44.144Z,14.70
2019-04-25T23:50:14.688Z,14.70
2019-04-25T23:52:44.174Z,14.60
2019-04-25T23:55:13.252Z,14.60
2019-04-25T23:57:42.378Z,14.60
